Time;durP1;ratioP1;P1;durP2;ratioP2;P2;SDS_P1;SDS_P2;PMS_P1;PMS_P2;Temp;Humidity;BMP_temperature;BMP_pressure;BME280_temperature;BME280_humidity;BME280_pressure;Samples;Min_cycle;Max_cycle;Signal;HPM_P1;HPM_P2
2021/04/12 00:00:29;;;;;;;5.95;1.65;;;1.00;91.30;;;;;;4950492;28;20114;-67
2021/04/12 00:03:01;;;;;;;6.35;2.17;;;1.00;91.40;;;;;;4953821;29;20115;-67
2021/04/12 00:05:39;;;;;;;4.82;1.85;;;0.80;91.50;;;;;;4950412;29;20089;-67
2021/04/12 00:08:29;;;;;;;6.07;1.95;;;0.70;91.50;;;;;;4947252;29;20074;-67
2021/04/12 00:11:00;;;;;;;8.20;1.73;;;0.60;91.60;;;;;;4947614;29;20106;-67
2021/04/12 00:13:34;;;;;;;4.50;1.77;;;0.50;91.70;;;;;;4951977;28;20377;-67
2021/04/12 00:16:08;;;;;;;3.88;1.88;;;0.50;91.80;;;;;;4953704;28;20117;-67
2021/04/12 00:18:42;;;;;;;5.28;1.75;;;0.40;91.90;;;;;;4952341;28;20066;-67
2021/04/12 00:21:20;;;;;;;7.43;2.15;;;0.30;92.00;;;;;;4945772;29;20045;-67
2021/04/12 00:24:08;;;;;;;5.55;2.22;;;0.20;92.10;;;;;;4949424;28;20385;-67
2021/04/12 00:26:42;;;;;;;8.45;2.63;;;0.20;92.20;;;;;;4946824;29;20554;-67
2021/04/12 00:29:41;;;;;;;5.30;2.03;;;0.10;92.20;;;;;;4953834;28;20024;-67
2021/04/12 00:32:15;;;;;;;6.13;2.22;;;0.10;92.20;;;;;;4949581;28;20043;-67
2021/04/12 00:34:54;;;;;;;6.63;2.00;;;0.00;92.30;;;;;;4950380;28;20020;-67
2021/04/12 00:37:23;;;;;;;6.60;2.28;;;0.00;92.30;;;;;;4954875;28;20031;-66
2021/04/12 00:39:55;;;;;;;5.13;2.38;;;-0.10;92.40;;;;;;4949754;28;20493;-67
2021/04/12 00:42:27;;;;;;;6.45;2.22;;;-0.10;92.40;;;;;;4950782;29;20058;-67
2021/04/12 00:45:29;;;;;;;7.25;2.30;;;-0.20;92.50;;;;;;4951018;28;20459;-67
2021/04/12 00:48:28;;;;;;;7.35;2.33;;;-0.20;92.60;;;;;;4948267;28;20023;-67
2021/04/12 00:51:24;;;;;;;8.30;2.35;;;-0.20;92.70;;;;;;4951279;28;20441;-67
2021/04/12 00:53:55;;;;;;;7.05;1.85;;;-0.20;92.60;;;;;;4948776;29;20042;-67
2021/04/12 00:56:34;;;;;;;6.78;2.03;;;-0.20;92.70;;;;;;4950980;29;20075;-67
2021/04/12 00:59:29;;;;;;;5.10;2.00;;;-0.20;92.70;;;;;;4952083;29;20038;-67
2021/04/12 01:02:18;;;;;;;4.03;1.63;;;-0.20;92.70;;;;;;4949352;29;20035;-67
2021/04/12 01:04:51;;;;;;;6.97;2.00;;;-0.20;92.70;;;;;;4945446;29;20035;-66
2021/04/12 01:07:50;;;;;;;5.63;1.23;;;-0.20;92.80;;;;;;4948427;28;20031;-66
2021/04/12 01:10:34;;;;;;;6.78;1.98;;;-0.20;92.90;;;;;;4945382;28;20039;-66
2021/04/12 01:13:06;;;;;;;5.55;2.47;;;-0.20;92.80;;;;;;4951541;28;20035;-66
2021/04/12 01:16:10;;;;;;;7.07;2.60;;;-0.20;93.00;;;;;;4949471;29;20079;-66
2021/04/12 01:19:17;;;;;;;3.67;1.70;;;-0.10;93.10;;;;;;4952450;29;20031;-66
2021/04/12 01:22:20;;;;;;;6.93;2.03;;;-0.10;93.00;;;;;;4925293;28;20043;-66
2021/04/12 01:25:32;;;;;;;4.70;2.03;;;-0.10;92.90;;;;;;4948306;28;20035;-66
2021/04/12 01:28:15;;;;;;;4.38;2.22;;;-0.10;92.90;;;;;;4949429;29;20031;-66
2021/04/12 01:31:27;;;;;;;5.30;1.92;;;-0.20;92.90;;;;;;4951453;28;20031;-66
2021/04/12 01:33:55;;;;;;;4.90;1.92;;;-0.20;93.00;;;;;;4957228;28;20028;-66
2021/04/12 01:36:53;;;;;;;4.10;1.70;;;-0.20;93.00;;;;;;4954911;29;20122;-66
2021/04/12 01:39:44;;;;;;;7.93;2.20;;;-0.20;93.00;;;;;;4947945;29;20502;-66
2021/04/12 01:42:34;;;;;;;7.10;1.90;;;-0.30;93.00;;;;;;4964666;28;20046;-66
2021/04/12 01:45:13;;;;;;;5.03;1.90;;;-0.30;93.10;;;;;;4952412;29;20525;-66
2021/04/12 01:47:58;;;;;;;9.85;2.03;;;-0.40;93.20;;;;;;4952870;28;20027;-66
2021/04/12 01:51:04;;;;;;;5.47;2.67;;;-0.40;93.20;;;;;;4956787;28;20448;-66
2021/04/12 01:54:08;;;;;;;8.93;2.47;;;-0.40;93.40;;;;;;4953457;29;20065;-66
2021/04/12 01:56:47;;;;;;;;;;;-0.30;93.50;;;;;;4952609;29;20030;-66
2021/04/12 01:59:30;;;;;;;5.80;2.80;;;-0.20;93.70;;;;;;4955494;29;20273;-66
2021/04/12 02:02:17;;;;;;;5.90;2.75;;;-0.20;93.40;;;;;;4954056;29;20019;-66
2021/04/12 02:05:06;;;;;;;5.63;2.60;;;-0.10;93.30;;;;;;4956463;28;20039;-66
2021/04/12 02:07:51;;;;;;;7.28;3.50;;;-0.10;93.30;;;;;;4953954;28;20034;-66
2021/04/12 02:10:44;;;;;;;8.85;3.15;;;0.00;93.30;;;;;;4954242;28;20391;-66
2021/04/12 02:13:22;;;;;;;5.65;3.40;;;0.00;93.30;;;;;;4952477;28;20114;-66
2021/04/12 02:16:08;;;;;;;7.93;3.85;;;0.00;93.30;;;;;;4952117;28;20038;-66
2021/04/12 02:18:52;;;;;;;12.02;3.67;;;0.00;93.40;;;;;;4957069;29;20385;-66
2021/04/12 02:21:58;;;;;;;8.95;3.38;;;0.00;93.40;;;;;;4952693;28;20039;-66
2021/04/12 02:24:57;;;;;;;8.40;3.75;;;0.10;93.40;;;;;;4953885;29;20027;-66
2021/04/12 02:27:34;;;;;;;6.25;3.13;;;0.10;93.40;;;;;;4953327;29;20416;-66
2021/04/12 02:30:13;;;;;;;6.70;3.17;;;0.10;93.40;;;;;;4948141;28;20401;-66
2021/04/12 02:33:15;;;;;;;11.68;3.55;;;0.00;93.30;;;;;;4954460;28;20039;-66
2021/04/12 02:35:56;;;;;;;12.63;4.20;;;0.00;93.40;;;;;;4954186;28;20478;-66
2021/04/12 02:38:37;;;;;;;7.43;2.97;;;0.00;93.50;;;;;;4952204;28;20110;-66
2021/04/12 02:41:29;;;;;;;9.20;4.20;;;-0.10;93.50;;;;;;4952532;28;20035;-66
2021/04/12 02:44:22;;;;;;;8.02;4.10;;;-0.10;93.60;;;;;;4954267;28;20039;-66
2021/04/12 02:47:10;;;;;;;11.75;3.88;;;-0.10;93.60;;;;;;4939860;29;20402;-66
2021/04/12 02:50:10;;;;;;;14.95;4.20;;;-0.20;93.60;;;;;;4950616;28;20020;-66
2021/04/12 02:53:00;;;;;;;10.75;4.18;;;-0.20;93.70;;;;;;4952400;29;20102;-66
2021/04/12 02:56:03;;;;;;;7.85;3.75;;;-0.20;93.80;;;;;;4951473;29;20497;-66
2021/04/12 02:58:53;;;;;;;8.75;3.72;;;-0.10;93.80;;;;;;4953240;28;20059;-66
2021/04/12 03:01:37;;;;;;;10.88;3.97;;;-0.10;93.80;;;;;;4951761;28;20505;-66
2021/04/12 03:04:24;;;;;;;9.90;4.10;;;-0.10;93.80;;;;;;4954917;29;20046;-66
2021/04/12 03:07:09;;;;;;;10.02;4.25;;;-0.10;93.80;;;;;;4954531;29;20589;-66
2021/04/12 03:10:02;;;;;;;10.15;4.45;;;-0.10;93.80;;;;;;4947083;29;20047;-66
2021/04/12 03:12:44;;;;;;;10.07;4.88;;;-0.10;93.90;;;;;;4951592;29;20019;-66
2021/04/12 03:15:43;;;;;;;9.68;4.10;;;-0.10;93.90;;;;;;4950018;28;20039;-66
2021/04/12 03:18:46;;;;;;;9.68;4.50;;;-0.20;93.90;;;;;;4955245;28;20489;-66
2021/04/12 03:21:31;;;;;;;9.65;4.65;;;-0.20;94.00;;;;;;4948474;28;20532;-66
2021/04/12 03:24:22;;;;;;;10.27;4.30;;;-0.20;93.90;;;;;;4952497;28;20031;-66
2021/04/12 03:27:07;;;;;;;11.90;5.38;;;-0.20;93.90;;;;;;4950656;28;20075;-66
2021/04/12 03:29:32;;;;;;;11.13;5.32;;;-0.30;94.00;;;;;;4952084;29;20500;-66
2021/04/12 03:32:23;;;;;;;12.50;6.00;;;-0.20;94.20;;;;;;4951730;29;20023;-66
2021/04/12 03:35:06;;;;;;;9.40;5.10;;;-0.20;94.20;;;;;;4951695;28;20027;-66
2021/04/12 03:37:47;;;;;;;;;;;-0.10;94.20;;;;;;4955120;29;20042;-66
2021/04/12 03:40:25;;;;;;;9.40;4.68;;;-0.20;94.20;;;;;;4948546;28;20370;-66
2021/04/12 03:43:26;;;;;;;6.78;4.15;;;-0.10;94.10;;;;;;4953178;28;20031;-66
2021/04/12 03:46:12;;;;;;;11.63;4.22;;;-0.10;94.00;;;;;;4929646;29;20098;-66
2021/04/12 03:48:50;;;;;;;8.50;4.18;;;-0.10;94.10;;;;;;4947787;28;20041;-66
2021/04/12 03:51:38;;;;;;;10.32;4.57;;;-0.20;94.20;;;;;;4952744;28;20023;-66
2021/04/12 03:54:37;;;;;;;5.60;3.35;;;-0.10;94.20;;;;;;4942061;28;20477;-66
2021/04/12 03:57:28;;;;;;;6.65;3.85;;;-0.20;94.10;;;;;;4933574;28;20489;-66
2021/04/12 04:00:18;;;;;;;7.80;3.83;;;-0.20;94.20;;;;;;4952701;29;20458;-66
2021/04/12 04:03:18;;;;;;;8.30;3.45;;;-0.20;94.20;;;;;;4949558;29;20122;-66
2021/04/12 04:05:48;;;;;;;12.15;4.05;;;-0.30;94.20;;;;;;4953842;28;20023;-66
2021/04/12 04:08:37;;;;;;;8.80;4.28;;;-0.40;94.30;;;;;;4954371;28;20540;-66
2021/04/12 04:11:24;;;;;;;6.53;3.35;;;-0.30;94.40;;;;;;4951169;28;20091;-66
2021/04/12 04:14:15;;;;;;;9.52;3.80;;;-0.30;94.40;;;;;;4952395;28;20478;-66
2021/04/12 04:17:10;;;;;;;6.60;3.13;;;-0.40;94.40;;;;;;4947890;29;20034;-66
2021/04/12 04:20:07;;;;;;;5.97;4.03;;;-0.40;94.40;;;;;;4954993;28;20019;-66
2021/04/12 04:22:41;;;;;;;8.65;3.47;;;-0.40;94.40;;;;;;4951289;29;20027;-66
2021/04/12 04:25:34;;;;;;;8.38;3.70;;;-0.40;94.50;;;;;;4951446;29;20039;-66
2021/04/12 04:28:11;;;;;;;7.82;3.28;;;-0.50;94.50;;;;;;4947753;28;20393;-66
2021/04/12 04:30:55;;;;;;;4.50;2.70;;;-0.40;94.60;;;;;;4945822;29;20035;-65
2021/04/12 04:34:01;;;;;;;7.72;3.42;;;-0.40;94.70;;;;;;4950235;28;20031;-66
2021/04/12 04:36:33;;;;;;;5.78;3.50;;;-0.40;94.60;;;;;;4948586;29;20036;-66
2021/04/12 04:39:17;;;;;;;;;;;-0.40;94.70;;;;;;4952570;29;20023;-66
2021/04/12 04:42:01;;;;;;;;;;;-0.40;94.70;;;;;;4949163;28;19918;-66
2021/04/12 04:44:51;;;;;;;8.20;3.28;;;-0.40;94.70;;;;;;4956576;28;19965;-66
2021/04/12 04:47:37;;;;;;;6.72;2.42;;;-0.40;94.60;;;;;;4947988;28;20134;-65
2021/04/12 04:50:05;;;;;;;7.25;2.42;;;-0.40;94.60;;;;;;4953332;29;20117;-65
2021/04/12 04:53:06;;;;;;;7.13;3.50;;;-0.40;94.60;;;;;;4951562;28;20031;-65
2021/04/12 04:55:50;;;;;;;7.57;3.40;;;-0.30;94.60;;;;;;4950456;28;20066;-65
2021/04/12 04:58:29;;;;;;;7.43;3.85;;;-0.30;94.70;;;;;;4943823;29;20020;-65
2021/04/12 05:01:05;;;;;;;7.47;3.25;;;-0.30;94.60;;;;;;4937892;28;20035;-65
2021/04/12 05:03:39;;;;;;;7.18;3.67;;;-0.30;94.70;;;;;;4942281;29;20481;-65
2021/04/12 05:06:20;;;;;;;7.28;4.28;;;-0.30;94.80;;;;;;4945603;29;20063;-65
2021/04/12 05:09:22;;;;;;;8.77;5.18;;;-0.20;94.90;;;;;;4945770;29;20117;-66
2021/04/12 05:12:25;;;;;;;6.32;3.33;;;-0.10;94.90;;;;;;4927017;28;20058;-65
2021/04/12 05:15:25;;;;;;;5.68;3.58;;;0.10;94.90;;;;;;4944714;28;20034;-65
2021/04/12 05:18:15;;;;;;;8.38;4.72;;;0.20;94.80;;;;;;4944683;29;20028;-66
2021/04/12 05:20:54;;;;;;;6.97;4.47;;;0.30;94.70;;;;;;4949259;29;20035;-65
2021/04/12 05:23:46;;;;;;;7.30;4.60;;;0.40;94.70;;;;;;4945507;29;20046;-65
2021/04/12 05:26:18;;;;;;;8.80;4.60;;;0.50;94.60;;;;;;4944262;29;20027;-65
2021/04/12 05:29:04;;;;;;;4.95;3.65;;;0.50;94.60;;;;;;4945457;29;20043;-66
2021/04/12 05:31:44;;;;;;;11.05;4.47;;;0.50;94.60;;;;;;4947022;29;20122;-65
2021/04/12 05:34:20;;;;;;;9.43;4.75;;;0.60;94.60;;;;;;4947407;29;20023;-66
2021/04/12 05:37:23;;;;;;;8.85;4.30;;;0.60;94.60;;;;;;4941508;28;20540;-65
2021/04/12 05:40:10;;;;;;;8.70;4.80;;;0.60;94.60;;;;;;4951733;29;20026;-67
2021/04/12 05:42:54;;;;;;;7.78;3.72;;;0.70;94.60;;;;;;4947161;29;20146;-66
2021/04/12 05:45:58;;;;;;;9.20;4.90;;;0.70;94.60;;;;;;4949777;29;20071;-65
2021/04/12 05:48:29;;;;;;;;;;;0.70;94.90;;;;;;4952384;29;20038;-66
2021/04/12 05:51:10;;;;;;;11.07;4.15;;;0.70;94.60;;;;;;4958529;28;20316;-66
2021/04/12 05:53:51;;;;;;;7.07;4.10;;;0.80;94.60;;;;;;4949671;28;20035;-65
2021/04/12 05:56:26;;;;;;;6.82;3.75;;;0.80;94.60;;;;;;4948688;29;20035;-66
2021/04/12 05:59:10;;;;;;;6.05;4.53;;;0.90;94.60;;;;;;4949000;29;20373;-65
2021/04/12 06:02:06;;;;;;;7.03;4.00;;;1.00;94.60;;;;;;4951065;28;20031;-67
2021/04/12 06:05:09;;;;;;;7.10;4.10;;;1.10;94.60;;;;;;4946490;29;20023;-66
2021/04/12 06:07:47;;;;;;;6.57;3.83;;;1.20;94.60;;;;;;4944402;29;20114;-67
2021/04/12 06:10:34;;;;;;;7.95;3.08;;;1.30;94.60;;;;;;4947072;29;20063;-65
2021/04/12 06:13:37;;;;;;;6.60;3.83;;;1.40;94.60;;;;;;4945927;29;20117;-65
2021/04/12 06:16:34;;;;;;;5.20;3.40;;;1.50;94.60;;;;;;4947088;28;20058;-65
2021/04/12 06:19:40;;;;;;;4.15;3.20;;;1.70;94.50;;;;;;4954809;29;20039;-65
2021/04/12 06:22:16;;;;;;;5.55;3.63;;;1.80;94.40;;;;;;4954340;29;20397;-65
2021/04/12 06:25:09;;;;;;;3.63;2.42;;;1.90;94.30;;;;;;4952810;29;20038;-65
2021/04/12 06:28:19;;;;;;;5.70;3.00;;;2.00;94.30;;;;;;4951642;29;20030;-65
2021/04/12 06:31:23;;;;;;;4.93;2.78;;;2.00;94.20;;;;;;4953825;29;20031;-65
2021/04/12 06:33:56;;;;;;;;;;;2.20;94.20;;;;;;4946653;28;20043;-65
2021/04/12 06:36:47;;;;;;;4.38;2.28;;;2.20;94.20;;;;;;4951900;29;19914;-65
2021/04/12 06:39:28;;;;;;;5.28;2.65;;;2.30;94.10;;;;;;4950873;29;20035;-65
2021/04/12 06:42:24;;;;;;;6.13;2.45;;;2.40;94.10;;;;;;4956402;29;20024;-65
2021/04/12 06:44:55;;;;;;;4.80;2.70;;;2.50;94.00;;;;;;4954422;29;20039;-66
2021/04/12 06:47:33;;;;;;;7.30;2.50;;;2.60;94.00;;;;;;4953306;28;20082;-65
2021/04/12 06:50:21;;;;;;;4.97;2.03;;;2.70;94.00;;;;;;4954431;29;20069;-65
2021/04/12 06:53:45;;;;;;;5.68;2.55;;;2.80;94.00;;;;;;4946828;29;20042;-65
2021/04/12 06:56:35;;;;;;;5.18;2.45;;;2.90;93.90;;;;;;4895549;29;20062;-66
2021/04/12 06:59:22;;;;;;;3.45;1.77;;;2.90;93.80;;;;;;4946552;28;20031;-67
2021/04/12 07:02:29;;;;;;;6.50;3.20;;;3.00;93.80;;;;;;4947137;29;20059;-67
2021/04/12 07:05:32;;;;;;;4.20;2.50;;;3.10;93.80;;;;;;4950434;28;20485;-65
2021/04/12 07:08:35;;;;;;;3.30;2.00;;;3.20;93.80;;;;;;4950310;29;20490;-65
2021/04/12 07:11:24;;;;;;;7.63;2.88;;;3.30;93.70;;;;;;4954462;29;20074;-66
2021/04/12 07:14:14;;;;;;;4.57;2.85;;;3.40;93.70;;;;;;4949938;29;20047;-65
2021/04/12 07:17:18;;;;;;;3.33;1.98;;;3.50;93.60;;;;;;4944867;29;20061;-66
2021/04/12 07:20:23;;;;;;;3.55;2.05;;;3.60;93.60;;;;;;4947720;29;20071;-66
2021/04/12 07:23:37;;;;;;;5.28;2.13;;;3.80;93.50;;;;;;4947154;29;20393;-66
2021/04/12 07:26:40;;;;;;;3.33;1.42;;;4.00;93.50;;;;;;4952117;29;20035;-67
2021/04/12 07:29:50;;;;;;;5.18;2.45;;;4.20;93.50;;;;;;4944740;28;20501;-67
2021/04/12 07:33:01;;;;;;;4.97;1.95;;;4.40;93.10;;;;;;4938713;29;20035;-67
2021/04/12 07:35:52;;;;;;;7.32;1.75;;;4.70;93.20;;;;;;4945016;28;20044;-67
2021/04/12 07:38:39;;;;;;;6.00;1.98;;;5.00;92.90;;;;;;4952697;29;20059;-67
2021/04/12 07:41:29;;;;;;;2.97;1.58;;;5.10;92.20;;;;;;4952922;29;20038;-67
2021/04/12 07:44:32;;;;;;;6.20;1.70;;;5.10;91.60;;;;;;4952037;28;20118;-67
2021/04/12 07:47:36;;;;;;;2.60;1.70;;;5.00;91.50;;;;;;4952203;29;20038;-67
2021/04/12 07:50:29;;;;;;;4.45;1.40;;;4.90;91.30;;;;;;4954894;29;20103;-67
2021/04/12 07:53:26;;;;;;;8.18;1.88;;;4.80;90.80;;;;;;4952862;29;20032;-67
2021/04/12 07:56:29;;;;;;;5.43;1.08;;;4.70;90.10;;;;;;4951715;29;20043;-67
2021/04/12 07:59:29;;;;;;;8.35;1.42;;;4.60;90.40;;;;;;4951528;28;20540;-67
2021/04/12 08:02:32;;;;;;;4.55;2.38;;;4.60;90.20;;;;;;4952166;28;20070;-67
2021/04/12 08:05:22;;;;;;;5.10;1.50;;;4.60;90.40;;;;;;4949374;29;20033;-67
2021/04/12 08:08:14;;;;;;;3.55;1.40;;;4.60;90.20;;;;;;4936111;29;20031;-67
2021/04/12 08:11:02;;;;;;;1.83;0.80;;;4.60;90.10;;;;;;4951500;29;20081;-67
2021/04/12 08:14:05;;;;;;;6.03;0.70;;;4.70;90.50;;;;;;4944432;28;20035;-67
2021/04/12 08:16:52;;;;;;;4.43;0.70;;;4.90;90.40;;;;;;4945842;29;20038;-67
2021/04/12 08:19:35;;;;;;;2.90;0.60;;;5.10;90.40;;;;;;4945121;29;20030;-67
2021/04/12 08:22:33;;;;;;;4.10;0.70;;;5.30;90.10;;;;;;4947991;29;20035;-67
2021/04/12 08:25:25;;;;;;;2.22;0.50;;;5.50;90.10;;;;;;4940678;28;20032;-68
2021/04/12 08:28:28;;;;;;;3.08;0.30;;;5.70;89.10;;;;;;4944664;28;20136;-67
2021/04/12 08:31:03;;;;;;;;;;;5.60;85.90;;;;;;4945385;28;20042;-67
2021/04/12 08:34:05;;;;;;;2.78;0.60;;;5.60;85.70;;;;;;4944667;28;19915;-67
2021/04/12 08:37:06;;;;;;;4.55;0.60;;;5.60;86.30;;;;;;4949843;29;20058;-67
2021/04/12 08:40:07;;;;;;;1.83;0.40;;;5.70;87.40;;;;;;4946368;28;20027;-67
2021/04/12 08:43:03;;;;;;;1.63;0.30;;;5.70;85.40;;;;;;4946884;29;20097;-67
2021/04/12 08:45:41;;;;;;;2.50;0.50;;;5.50;85.90;;;;;;4942966;28;20508;-67
2021/04/12 08:48:34;;;;;;;2.47;0.50;;;5.40;86.90;;;;;;4946530;29;20042;-67
2021/04/12 08:51:30;;;;;;;3.50;0.50;;;5.40;87.30;;;;;;4946464;29;20039;-67
2021/04/12 08:54:05;;;;;;;3.08;0.50;;;5.30;87.50;;;;;;4945029;28;20038;-68
2021/04/12 08:56:47;;;;;;;3.03;0.30;;;5.20;86.80;;;;;;4946698;29;20655;-68
2021/04/12 08:59:46;;;;;;;1.48;0.40;;;5.10;86.80;;;;;;4948248;29;20023;-68
2021/04/12 09:02:54;;;;;;;4.43;1.10;;;5.20;86.80;;;;;;4947341;29;20122;-67
2021/04/12 09:05:25;;;;;;;4.72;2.00;;;5.10;87.00;;;;;;4947310;28;20037;-68
2021/04/12 09:08:12;;;;;;;4.82;0.82;;;5.30;88.10;;;;;;4947557;29;20042;-68
2021/04/12 09:11:20;;;;;;;4.55;0.70;;;5.60;87.90;;;;;;4945527;29;20086;-68
2021/04/12 09:14:21;;;;;;;1.40;0.40;;;5.90;87.20;;;;;;4940920;28;20109;-68
2021/04/12 09:17:13;;;;;;;2.25;0.95;;;6.00;85.20;;;;;;4945810;28;20038;-67
2021/04/12 09:20:07;;;;;;;3.78;2.35;;;6.00;84.40;;;;;;4943830;29;20593;-67
2021/04/12 09:22:51;;;;;;;6.30;5.03;;;5.90;84.70;;;;;;4946010;29;20027;-68
2021/04/12 09:25:47;;;;;;;6.25;4.20;;;6.00;84.60;;;;;;4946900;29;20027;-68
2021/04/12 09:28:20;;;;;;;4.93;2.97;;;5.90;84.50;;;;;;4945752;29;20401;-68
2021/04/12 09:31:01;;;;;;;3.88;1.70;;;5.80;84.90;;;;;;4946314;28;20046;-68
2021/04/12 09:33:42;;;;;;;1.48;0.57;;;5.80;85.40;;;;;;4944015;28;20082;-68
2021/04/12 09:36:33;;;;;;;1.92;0.60;;;5.70;84.50;;;;;;4945875;28;20401;-68
2021/04/12 09:39:39;;;;;;;3.22;0.63;;;5.60;85.30;;;;;;4941683;29;20031;-68
2021/04/12 09:42:23;;;;;;;2.35;0.60;;;5.60;86.00;;;;;;4943711;29;20035;-68
2021/04/12 09:45:38;;;;;;;3.20;0.60;;;5.60;85.20;;;;;;4942589;28;20066;-68
2021/04/12 09:48:36;;;;;;;3.13;0.63;;;5.60;85.30;;;;;;4936870;29;20089;-68
2021/04/12 09:51:19;;;;;;;3.78;1.45;;;5.40;85.40;;;;;;4945227;28;20031;-68
2021/04/12 09:53:54;;;;;;;3.60;1.35;;;5.50;85.90;;;;;;4948158;28;20058;-67
2021/04/12 09:56:22;;;;;;;3.20;0.80;;;5.60;85.80;;;;;;4950968;29;20034;-68
2021/04/12 09:59:16;;;;;;;1.98;0.80;;;5.70;85.90;;;;;;4951287;29;20027;-67
2021/04/12 10:02:22;;;;;;;1.73;0.93;;;5.80;86.90;;;;;;4945621;29;20490;-67
2021/04/12 10:05:07;;;;;;;3.67;0.80;;;5.90;84.90;;;;;;4943798;28;20121;-68
2021/04/12 10:07:57;;;;;;;4.10;1.10;;;5.80;84.70;;;;;;4950758;29;20039;-68
2021/04/12 10:10:28;;;;;;;3.97;1.25;;;5.80;85.70;;;;;;4951143;29;20047;-67
2021/04/12 10:13:17;;;;;;;3.33;1.00;;;6.00;85.80;;;;;;4951013;29;20031;-68
2021/04/12 10:15:57;;;;;;;2.60;0.93;;;6.30;85.30;;;;;;4949546;29;20082;-68
2021/04/12 10:18:56;;;;;;;1.35;0.52;;;6.60;84.90;;;;;;4945933;28;20035;-67
2021/04/12 10:21:48;;;;;;;1.38;0.40;;;6.90;82.70;;;;;;4937955;28;20036;-68
2021/04/12 10:24:27;;;;;;;1.50;0.40;;;6.50;81.60;;;;;;4946520;28;20038;-67
2021/04/12 10:27:04;;;;;;;1.65;0.45;;;5.70;83.00;;;;;;4953349;29;20043;-67
2021/04/12 10:29:43;;;;;;;1.10;0.47;;;5.20;85.90;;;;;;4954329;28;20019;-67
2021/04/12 10:32:14;;;;;;;1.83;0.50;;;5.00;87.60;;;;;;4949381;29;20031;-67
2021/04/12 10:34:55;;;;;;;1.20;0.60;;;5.10;89.70;;;;;;4955858;29;20035;-67
2021/04/12 10:37:31;;;;;;;1.58;0.50;;;5.30;88.70;;;;;;4952217;28;20414;-67
2021/04/12 10:40:19;;;;;;;2.10;0.68;;;5.50;88.10;;;;;;4954139;28;20406;-67
2021/04/12 10:43:21;;;;;;;2.22;0.68;;;5.50;86.30;;;;;;4951258;28;20406;-67
2021/04/12 10:46:13;;;;;;;2.05;0.60;;;5.50;87.30;;;;;;4951092;29;20031;-67
2021/04/12 10:49:09;;;;;;;0.68;0.35;;;5.70;86.40;;;;;;4949195;29;20470;-67
2021/04/12 10:52:20;;;;;;;1.30;0.60;;;5.50;86.10;;;;;;4953674;29;20066;-67
2021/04/12 10:55:14;;;;;;;1.50;0.80;;;5.50;85.70;;;;;;4907394;29;20025;-67
2021/04/12 10:58:07;;;;;;;2.63;0.80;;;5.50;85.90;;;;;;4946916;28;20450;-67
2021/04/12 11:00:46;;;;;;;3.40;1.88;;;5.70;84.90;;;;;;4947444;28;20090;-67
2021/04/12 11:03:33;;;;;;;3.28;1.45;;;5.90;85.50;;;;;;4949433;28;20441;-68
2021/04/12 11:06:18;;;;;;;3.75;1.40;;;6.20;85.10;;;;;;4949845;29;20066;-67
2021/04/12 11:09:21;;;;;;;3.05;1.45;;;6.50;84.20;;;;;;4940670;28;20054;-67
2021/04/12 11:11:52;;;;;;;3.40;2.10;;;6.80;82.60;;;;;;4951439;29;20493;-67
2021/04/12 11:14:31;;;;;;;5.35;1.90;;;6.90;80.80;;;;;;4952846;29;20024;-67
2021/04/12 11:17:12;;;;;;;5.57;1.48;;;7.10;81.70;;;;;;4949817;28;20112;-67
2021/04/12 11:19:51;;;;;;;2.40;1.02;;;7.20;78.80;;;;;;4950876;29;20019;-67
2021/04/12 11:22:58;;;;;;;4.32;1.15;;;7.00;78.50;;;;;;4955745;29;20027;-67
2021/04/12 11:25:29;;;;;;;1.80;0.80;;;6.70;79.10;;;;;;4950362;29;20027;-67
2021/04/12 11:28:10;;;;;;;2.00;0.60;;;6.70;80.10;;;;;;4951147;29;20430;-67
2021/04/12 11:31:04;;;;;;;1.40;0.73;;;6.80;79.10;;;;;;4950845;29;20489;-67
2021/04/12 11:33:32;;;;;;;1.38;0.60;;;6.70;77.60;;;;;;4953630;29;20039;-67
2021/04/12 11:36:34;;;;;;;1.60;0.73;;;6.50;77.70;;;;;;4952042;29;20023;-67
2021/04/12 11:39:18;;;;;;;0.95;0.40;;;6.60;78.70;;;;;;4943497;29;20370;-67
2021/04/12 11:41:53;;;;;;;1.15;0.40;;;6.80;77.90;;;;;;4947235;29;20023;-67
2021/04/12 11:44:53;;;;;;;2.80;0.95;;;6.80;75.60;;;;;;4950943;29;20047;-67
2021/04/12 11:47:46;;;;;;;0.60;0.22;;;6.90;74.30;;;;;;4947135;29;20023;-67
2021/04/12 11:50:14;;;;;;;;;;;7.00;75.00;;;;;;4954944;29;20058;-67
2021/04/12 11:53:20;;;;;;;0.85;0.40;;;7.00;75.00;;;;;;4951536;28;19914;-67
2021/04/12 11:56:04;;;;;;;0.70;0.40;;;7.10;74.60;;;;;;4950957;29;21172;-67
2021/04/12 11:58:38;;;;;;;1.55;0.40;;;7.10;74.20;;;;;;4949731;29;20442;-67
2021/04/12 12:01:27;;;;;;;1.27;0.50;;;7.10;74.50;;;;;;4953135;28;20436;-67
2021/04/12 12:04:10;;;;;;;1.10;0.40;;;7.30;73.70;;;;;;4950891;28;20039;-67
2021/04/12 12:07:15;;;;;;;1.83;0.40;;;7.40;73.50;;;;;;4945049;29;20055;-67
2021/04/12 12:10:05;;;;;;;2.58;0.57;;;7.40;72.10;;;;;;4933199;29;20130;-67
2021/04/12 12:12:37;;;;;;;0.90;0.20;;;7.30;72.80;;;;;;4952994;28;20035;-67
2021/04/12 12:15:28;;;;;;;1.23;0.47;;;7.40;73.20;;;;;;4950976;28;20133;-67
2021/04/12 12:18:02;;;;;;;1.30;0.40;;;7.50;72.30;;;;;;4951647;28;20031;-67
2021/04/12 12:20:47;;;;;;;1.67;0.30;;;7.70;72.70;;;;;;4946902;29;20026;-67
2021/04/12 12:23:26;;;;;;;2.65;0.47;;;8.00;72.10;;;;;;4951685;29;20045;-67
2021/04/12 12:25:57;;;;;;;1.40;0.35;;;8.20;68.90;;;;;;4949486;29;20031;-67
2021/04/12 12:28:30;;;;;;;0.90;0.30;;;8.00;64.50;;;;;;4943686;28;20493;-67
2021/04/12 12:31:34;;;;;;;2.47;0.40;;;7.80;65.60;;;;;;4953132;29;20046;-67
2021/04/12 12:34:17;;;;;;;1.27;0.40;;;7.80;64.70;;;;;;4952889;28;20030;-67
2021/04/12 12:36:56;;;;;;;;;;;7.80;64.80;;;;;;4942018;29;20505;-67
2021/04/12 12:39:51;;;;;;;1.23;0.40;;;7.80;63.40;;;;;;4947140;29;20005;-67
2021/04/12 12:42:35;;;;;;;2.22;0.50;;;7.80;65.50;;;;;;4934878;28;20032;-67
2021/04/12 12:45:06;;;;;;;1.83;0.40;;;7.90;64.20;;;;;;4947160;29;20115;-67
2021/04/12 12:47:33;;;;;;;1.55;0.35;;;7.90;61.70;;;;;;4947150;29;20035;-67
2021/04/12 12:50:05;;;;;;;0.95;0.40;;;7.90;62.70;;;;;;4945731;28;20050;-67
2021/04/12 12:52:48;;;;;;;1.55;0.40;;;8.00;63.70;;;;;;4949491;28;20039;-67
2021/04/12 12:55:46;;;;;;;3.90;0.40;;;8.20;62.30;;;;;;4951659;29;20119;-67
2021/04/12 12:58:18;;;;;;;1.35;0.40;;;8.40;61.60;;;;;;4924444;28;20477;-67
2021/04/12 13:00:48;;;;;;;2.17;0.77;;;8.50;61.00;;;;;;4947863;28;20031;-67
2021/04/12 13:03:21;;;;;;;1.02;0.30;;;8.70;58.20;;;;;;4949360;28;20035;-67
2021/04/12 13:05:49;;;;;;;2.40;0.50;;;8.70;58.40;;;;;;4951076;29;20053;-67
2021/04/12 13:08:25;;;;;;;1.27;0.40;;;8.50;60.20;;;;;;4949117;29;20053;-67
2021/04/12 13:10:51;;;;;;;4.25;0.70;;;8.10;61.70;;;;;;4948986;29;20422;-67
2021/04/12 13:13:37;;;;;;;3.08;0.50;;;7.80;64.30;;;;;;4946481;29;20445;-68
2021/04/12 13:16:28;;;;;;;2.38;0.30;;;7.60;65.00;;;;;;4949327;28;20027;-67
2021/04/12 13:18:57;;;;;;;2.85;0.30;;;7.40;65.20;;;;;;4949482;29;20090;-68
2021/04/12 13:21:27;;;;;;;1.42;0.30;;;7.20;65.70;;;;;;4944098;28;20367;-67
2021/04/12 13:24:08;;;;;;;1.02;0.40;;;7.10;66.90;;;;;;4947332;29;20086;-67
2021/04/12 13:26:37;;;;;;;1.25;0.20;;;7.00;66.50;;;;;;4946061;28;20117;-68
2021/04/12 13:29:14;;;;;;;1.67;0.30;;;7.00;65.50;;;;;;4950783;28;20091;-68
2021/04/12 13:31:53;;;;;;;1.05;0.20;;;6.90;65.60;;;;;;4951840;28;20054;-68
2021/04/12 13:34:39;;;;;;;2.80;0.30;;;6.70;66.40;;;;;;4953529;28;20045;-68
2021/04/12 13:37:13;;;;;;;3.55;0.50;;;6.50;67.30;;;;;;4951549;29;20083;-68
2021/04/12 13:39:41;;;;;;;1.58;0.28;;;6.10;68.20;;;;;;4952646;29;20029;-68
2021/04/12 13:42:22;;;;;;;3.05;0.35;;;5.80;69.30;;;;;;4951645;28;20035;-68
2021/04/12 13:45:09;;;;;;;1.48;0.30;;;5.60;70.10;;;;;;4952879;28;20572;-68
2021/04/12 13:47:48;;;;;;;1.38;0.30;;;5.60;71.20;;;;;;4951762;29;20122;-67
2021/04/12 13:50:28;;;;;;;0.80;0.40;;;5.70;71.50;;;;;;4957076;28;20039;-67
2021/04/12 13:52:53;;;;;;;1.40;0.38;;;5.90;71.90;;;;;;4949047;28;20031;-67
2021/04/12 13:55:26;;;;;;;2.33;0.35;;;5.90;72.00;;;;;;4955783;28;20031;-67
2021/04/12 13:58:01;;;;;;;2.40;0.30;;;6.00;72.60;;;;;;4950481;28;20474;-67
2021/04/12 14:00:38;;;;;;;0.95;0.38;;;6.20;73.30;;;;;;4954560;28;20082;-67
2021/04/12 14:03:19;;;;;;;1.60;0.30;;;6.30;73.50;;;;;;4947878;28;20034;-68
2021/04/12 14:06:01;;;;;;;3.40;0.30;;;6.50;73.80;;;;;;4950192;28;20027;-68
2021/04/12 14:08:28;;;;;;;4.20;0.50;;;6.70;74.30;;;;;;4950569;29;20027;-68
2021/04/12 14:10:56;;;;;;;5.38;0.40;;;7.10;74.30;;;;;;4951869;28;20438;-67
2021/04/12 14:13:24;;;;;;;1.50;0.82;;;7.30;74.30;;;;;;4954579;28;20496;-68
2021/04/12 14:15:51;;;;;;;2.10;0.60;;;7.60;73.70;;;;;;4955215;28;20051;-68
2021/04/12 14:18:30;;;;;;;2.92;0.60;;;8.00;73.50;;;;;;4954272;28;20055;-68
2021/04/12 14:21:22;;;;;;;3.50;0.60;;;8.20;73.30;;;;;;4946257;28;20028;-68
2021/04/12 14:24:07;;;;;;;2.40;0.50;;;8.40;72.80;;;;;;4954828;29;20034;-68
2021/04/12 14:26:41;;;;;;;1.77;0.60;;;8.70;72.80;;;;;;4950810;29;20035;-69
2021/04/12 14:29:28;;;;;;;3.45;0.50;;;8.90;72.40;;;;;;4957037;29;20042;-66
2021/04/12 14:32:00;;;;;;;2.65;0.80;;;9.10;71.70;;;;;;4957881;28;20454;-66
2021/04/12 14:34:32;;;;;;;;;;;9.10;71.40;;;;;;4953046;29;20038;-68
2021/04/12 14:37:04;;;;;;;5.03;0.80;;;8.90;70.50;;;;;;4950241;28;19917;-68